Time;durP1;ratioP1;P1;durP2;ratioP2;P2;SDS_P1;SDS_P2;PMS_P1;PMS_P2;Temp;Humidity;BMP_temperature;BMP_pressure;BME280_temperature;BME280_humidity;BME280_pressure;Samples;Min_cycle;Max_cycle;Signal;HPM_P1;HPM_P2
2024/03/15 00:00:44;;;;;;;11.18;5.60;;;;;;;11.40;100.00;100524.78;6301578;28;20055;-76
2024/03/15 00:03:46;;;;;;;12.13;6.32;;;;;;;11.40;100.00;100526.56;6302216;28;20055;-76
2024/03/15 00:06:47;;;;;;;10.23;6.22;;;;;;;11.36;100.00;100519.78;6301687;28;20040;-76
2024/03/15 00:09:49;;;;;;;9.50;5.15;;;;;;;11.33;100.00;100515.56;6276821;28;20083;-76
2024/03/15 00:12:51;;;;;;;12.95;6.15;;;;;;;11.33;100.00;100518.19;6277103;28;20049;-76
2024/03/15 00:15:52;;;;;;;11.05;5.03;;;;;;;11.33;100.00;100519.97;6277081;28;20045;-76
2024/03/15 00:18:55;;;;;;;13.60;5.63;;;;;;;11.30;100.00;100505.19;6284480;28;20046;-77
2024/03/15 00:21:58;;;;;;;9.95;5.63;;;;;;;11.31;100.00;100513.94;6301426;28;20053;-77
2024/03/15 00:24:59;;;;;;;11.88;6.00;;;;;;;11.31;100.00;100508.69;6301208;28;20053;-76
2024/03/15 00:28:02;;;;;;;9.88;5.85;;;;;;;11.34;100.00;100505.88;6296884;28;20045;-77
2024/03/15 00:31:04;;;;;;;9.55;6.10;;;;;;;11.38;100.00;100499.50;6291782;28;20106;-77
2024/03/15 00:34:06;;;;;;;10.90;6.03;;;;;;;11.42;100.00;100501.00;6260006;28;20049;-77
2024/03/15 00:37:08;;;;;;;9.43;5.60;;;;;;;11.45;100.00;100497.34;6259630;28;20048;-77
2024/03/15 00:40:11;;;;;;;11.40;6.18;;;;;;;11.49;100.00;100498.81;6259886;28;20060;-77
2024/03/15 00:43:15;;;;;;;10.07;5.93;;;;;;;11.49;100.00;100493.56;6260068;28;20048;-77
2024/03/15 00:46:17;;;;;;;10.55;6.15;;;;;;;11.54;100.00;100491.53;6259676;28;20159;-77
2024/03/15 00:49:18;;;;;;;10.10;6.15;;;;;;;11.54;100.00;100489.72;6280362;28;20425;-77
2024/03/15 00:52:20;;;;;;;13.85;6.70;;;;;;;11.54;100.00;100488.88;6299835;28;20071;-77
2024/03/15 00:55:22;;;;;;;13.30;5.97;;;;;;;11.53;100.00;100485.38;6299761;28;20487;-77
2024/03/15 00:58:23;;;;;;;12.40;6.32;;;;;;;11.57;100.00;100484.25;6296867;28;20049;-77
2024/03/15 01:01:25;;;;;;;12.98;6.10;;;;;;;11.61;100.00;100483.13;6283796;28;20041;-77
2024/03/15 01:04:28;;;;;;;13.27;5.97;;;;;;;11.48;100.00;100476.94;6298044;28;20049;-77
2024/03/15 01:07:30;;;;;;;10.35;6.63;;;;;;;11.55;100.00;100480.03;6300097;28;20469;-77
2024/03/15 01:10:32;;;;;;;11.70;6.57;;;;;;;11.61;100.00;100480.50;6299920;28;20353;-76
2024/03/15 01:13:33;;;;;;;12.90;6.32;;;;;;;11.60;100.00;100478.81;6283850;28;20097;-76
2024/03/15 01:16:35;;;;;;;11.00;5.90;;;;;;;11.63;100.00;100476.00;6299998;28;20056;-76
2024/03/15 01:19:36;;;;;;;10.95;6.78;;;;;;;11.66;100.00;100477.59;6299853;28;20044;-76
2024/03/15 01:22:41;;;;;;;12.50;6.97;;;;;;;11.71;100.00;100470.25;6300281;28;20127;-76
2024/03/15 01:25:42;;;;;;;10.80;6.03;;;;;;;11.69;100.00;100461.59;6299832;28;20395;-76
2024/03/15 01:28:43;;;;;;;10.60;6.28;;;;;;;11.69;100.00;100475.63;6291491;28;20389;-76
2024/03/15 01:31:45;;;;;;;12.85;5.97;;;;;;;11.66;100.00;100472.31;6258421;28;20049;-76
2024/03/15 01:34:46;;;;;;;11.60;6.85;;;;;;;11.66;100.00;100467.06;6281938;28;20062;-77
2024/03/15 01:37:48;;;;;;;9.68;6.13;;;;;;;11.68;100.00;100460.78;6282983;28;20051;-76
2024/03/15 01:40:49;;;;;;;11.07;6.35;;;;;;;11.69;100.00;100465.09;6282702;28;20155;-76
2024/03/15 01:43:51;;;;;;;11.70;6.13;;;;;;;11.71;100.00;100469.41;6299925;28;20052;-76
2024/03/15 01:46:52;;;;;;;9.38;5.50;;;;;;;11.72;100.00;100464.06;6299238;28;20059;-76
2024/03/15 01:49:54;;;;;;;10.50;6.40;;;;;;;11.72;100.00;100460.56;6299040;28;20419;-76
2024/03/15 01:52:55;;;;;;;11.38;6.25;;;;;;;11.73;100.00;100454.38;6299690;28;20052;-76
2024/03/15 01:55:57;;;;;;;9.82;5.90;;;;;;;11.71;100.00;100457.06;6299180;28;20044;-76
2024/03/15 01:58:59;;;;;;;9.70;5.90;;;;;;;11.72;100.00;100445.63;6299331;28;20445;-76
2024/03/15 02:02:01;;;;;;;10.27;6.38;;;;;;;11.59;100.00;100439.44;6299380;28;20055;-76
2024/03/15 02:05:03;;;;;;;9.80;5.78;;;;;;;11.52;100.00;100438.13;6282690;28;20047;-76
2024/03/15 02:08:07;;;;;;;10.70;6.60;;;;;;;11.48;100.00;100439.25;6299365;28;20048;-76
2024/03/15 02:11:10;;;;;;;8.13;5.10;;;;;;;11.50;100.00;100440.84;6299469;28;20050;-76
2024/03/15 02:14:12;;;;;;;14.52;6.57;;;;;;;11.51;100.00;100433.81;6299502;28;20131;-77
2024/03/15 02:17:13;;;;;;;10.35;6.25;;;;;;;11.51;100.00;100426.75;6299414;28;20048;-77
2024/03/15 02:20:19;;;;;;;12.77;6.70;;;;;;;11.54;100.00;100436.25;6298773;28;20136;-77
2024/03/15 02:23:20;;;;;;;10.80;5.90;;;;;;;11.55;100.00;100430.88;6299460;28;20059;-77
2024/03/15 02:26:22;;;;;;;10.02;6.00;;;;;;;11.58;100.00;100425.44;6298834;28;20048;-77
2024/03/15 02:29:25;;;;;;;10.48;6.30;;;;;;;11.49;100.00;100428.66;6298526;28;20045;-76
2024/03/15 02:32:27;;;;;;;11.85;6.25;;;;;;;11.47;100.00;100419.97;6299061;28;20057;-76
2024/03/15 02:35:30;;;;;;;10.68;6.45;;;;;;;11.46;100.00;100420.94;6298747;28;20059;-76
2024/03/15 02:38:33;;;;;;;10.32;5.80;;;;;;;11.54;100.00;100420.47;6299115;28;20129;-76
2024/03/15 02:41:35;;;;;;;8.15;5.50;;;;;;;11.65;100.00;100425.88;6298144;28;20336;-76
2024/03/15 02:44:36;;;;;;;12.45;6.40;;;;;;;11.70;100.00;100421.19;6314348;22;20044;-77
2024/03/15 02:47:38;;;;;;;9.65;5.60;;;;;;;11.60;100.00;100425.34;6348457;28;20051;-76
2024/03/15 02:50:40;;;;;;;10.60;6.65;;;;;;;11.56;100.00;100423.84;6335042;28;20055;-77
2024/03/15 02:53:43;;;;;;;13.80;5.75;;;;;;;11.56;100.00;100422.03;6337686;28;20051;-77
2024/03/15 02:56:44;;;;;;;14.77;6.90;;;;;;;11.55;100.00;100428.25;6337316;28;20048;-77
2024/03/15 02:59:46;;;;;;;10.88;6.13;;;;;;;11.48;100.00;100431.34;6336773;28;20048;-78
2024/03/15 03:02:49;;;;;;;11.82;5.28;;;;;;;11.47;100.00;100421.78;6337386;28;20047;-76
2024/03/15 03:05:51;;;;;;;10.68;6.22;;;;;;;11.42;100.00;100427.31;6337105;28;20050;-77
2024/03/15 03:08:52;;;;;;;11.43;5.75;;;;;;;11.39;100.00;100423.09;6337190;28;20058;-77
2024/03/15 03:11:55;;;;;;;12.60;6.10;;;;;;;11.37;100.00;100413.63;6336425;28;20180;-76
2024/03/15 03:14:56;;;;;;;10.52;5.80;;;;;;;11.32;100.00;100418.31;6332016;28;20428;-75
2024/03/15 03:17:58;;;;;;;14.70;6.45;;;;;;;11.26;100.00;100426.56;6287858;28;20387;-76
2024/03/15 03:21:00;;;;;;;10.80;5.78;;;;;;;11.26;100.00;100418.69;6286272;28;20052;-77
2024/03/15 03:24:01;;;;;;;11.80;5.97;;;;;;;11.29;100.00;100410.59;6301452;28;20071;-76
2024/03/15 03:27:04;;;;;;;10.60;6.18;;;;;;;11.24;100.00;100412.69;6311056;28;20088;-77
2024/03/15 03:30:06;;;;;;;10.95;5.63;;;;;;;11.24;100.00;100407.41;6308300;28;20056;-76
2024/03/15 03:33:08;;;;;;;12.00;6.55;;;;;;;11.19;100.00;100412.97;6288919;28;20050;-76
2024/03/15 03:36:09;;;;;;;8.77;5.35;;;;;;;11.14;100.00;100405.34;6302751;28;20049;-76
2024/03/15 03:39:11;;;;;;;13.98;6.20;;;;;;;11.10;100.00;100406.47;6302197;28;20045;-77
2024/03/15 03:42:13;;;;;;;10.27;5.88;;;;;;;11.09;100.00;100402.16;6303097;28;20045;-76
2024/03/15 03:45:17;;;;;;;11.25;6.35;;;;;;;11.03;100.00;100402.50;6302195;28;20059;-76
2024/03/15 03:48:19;;;;;;;10.77;6.63;;;;;;;10.97;100.00;100396.78;6302730;28;20152;-77
2024/03/15 03:51:20;;;;;;;8.52;4.68;;;;;;;10.96;100.00;100400.38;6301872;28;20044;-76
2024/03/15 03:54:23;;;;;;;10.55;5.47;;;;;;;10.89;100.00;100407.75;6302298;28;20479;-77
2024/03/15 03:57:24;;;;;;;9.38;5.47;;;;;;;10.81;100.00;100399.47;6302372;28;20044;-76
2024/03/15 04:00:26;;;;;;;11.32;5.43;;;;;;;10.81;100.00;100407.38;6301371;28;20135;-77
2024/03/15 04:03:28;;;;;;;10.32;5.90;;;;;;;10.74;100.00;100406.91;6304266;28;20056;-77
2024/03/15 04:06:29;;;;;;;9.55;5.22;;;;;;;10.69;100.00;100400.22;6297132;28;20437;-76
2024/03/15 04:09:31;;;;;;;11.32;6.50;;;;;;;10.62;100.00;100397.09;6303789;28;20043;-76
2024/03/15 04:12:32;;;;;;;10.05;6.05;;;;;;;10.59;100.00;100399.94;6310346;28;20059;-75
2024/03/15 04:15:35;;;;;;;11.63;5.97;;;;;;;10.57;100.00;100392.13;6310086;28;20455;-75
2024/03/15 04:18:37;;;;;;;10.75;6.05;;;;;;;10.57;100.00;100399.16;6310414;28;20344;-76
2024/03/15 04:21:38;;;;;;;11.38;5.78;;;;;;;10.56;100.00;100392.22;6309903;28;20055;-76
2024/03/15 04:24:40;;;;;;;10.65;5.53;;;;;;;10.61;100.00;100390.16;6303160;28;20048;-76
2024/03/15 04:27:41;;;;;;;12.02;6.00;;;;;;;10.72;100.00;100384.25;6293454;28;20045;-76
2024/03/15 04:30:43;;;;;;;12.00;6.22;;;;;;;10.82;100.00;100381.00;6284533;28;20044;-77
2024/03/15 04:33:44;;;;;;;11.82;5.65;;;;;;;10.90;100.00;100376.16;6284933;28;20475;-76
2024/03/15 04:36:46;;;;;;;9.57;5.35;;;;;;;10.91;100.00;100383.09;6284631;28;20067;-76
2024/03/15 04:39:48;;;;;;;12.23;6.13;;;;;;;10.95;100.00;100378.50;6284200;28;20348;-76
2024/03/15 04:42:49;;;;;;;9.63;5.70;;;;;;;10.97;100.00;100373.97;6285113;28;20451;-77
2024/03/15 04:45:51;;;;;;;8.88;4.63;;;;;;;11.00;100.00;100376.44;6284153;28;20056;-76
2024/03/15 04:48:52;;;;;;;11.73;6.13;;;;;;;11.05;100.00;100382.25;6284801;28;20052;-75
2024/03/15 04:51:54;;;;;;;11.55;5.22;;;;;;;11.12;100.00;100378.28;6283991;28;20326;-77
2024/03/15 04:54:56;;;;;;;15.23;6.05;;;;;;;11.16;100.00;100381.56;6284239;28;20166;-77
2024/03/15 04:57:57;;;;;;;14.13;6.30;;;;;;;11.14;100.00;100386.09;6296262;28;20361;-77
2024/03/15 05:01:00;;;;;;;14.27;6.07;;;;;;;11.15;100.00;100391.25;6308869;28;20060;-76
2024/03/15 05:04:02;;;;;;;11.27;5.63;;;;;;;11.20;100.00;100382.25;6309379;28;20058;-77
2024/03/15 05:07:05;;;;;;;10.77;5.78;;;;;;;11.19;100.00;100384.03;6308904;28;20056;-76
2024/03/15 05:10:07;;;;;;;14.20;5.95;;;;;;;11.16;100.00;100381.56;6308476;28;20329;-77
2024/03/15 05:13:08;;;;;;;16.38;5.75;;;;;;;11.16;100.00;100371.06;6308036;28;20127;-77
2024/03/15 05:16:12;;;;;;;10.93;5.40;;;;;;;11.18;100.00;100377.94;6308492;28;20056;-77
2024/03/15 05:19:14;;;;;;;10.00;4.68;;;;;;;11.22;100.00;100372.44;6308466;28;20333;-77
2024/03/15 05:22:15;;;;;;;8.80;4.88;;;;;;;11.29;100.00;100373.78;6308761;28;20048;-77
2024/03/15 05:25:17;;;;;;;6.90;4.47;;;;;;;11.29;100.00;100377.25;6308326;28;20067;-76
2024/03/15 05:28:18;;;;;;;7.93;4.78;;;;;;;11.25;100.00;100380.16;6308646;28;20062;-76
2024/03/15 05:31:23;;;;;;;8.73;4.78;;;;;;;11.30;100.00;100381.56;6307984;28;20044;-76
2024/03/15 05:34:26;;;;;;;9.23;5.07;;;;;;;11.36;100.00;100378.56;6308305;28;20055;-76
2024/03/15 05:37:28;;;;;;;7.95;4.50;;;;;;;11.38;100.00;100371.41;6296089;28;20040;-77
2024/03/15 05:40:30;;;;;;;7.18;4.55;;;;;;;11.40;100.00;100376.59;6308120;28;20133;-77
2024/03/15 05:43:31;;;;;;;7.35;4.13;;;;;;;11.42;100.00;100380.81;6308234;28;20044;-77
2024/03/15 05:46:33;;;;;;;9.32;4.45;;;;;;;11.46;100.00;100381.47;6299070;28;20441;-77
2024/03/15 05:49:35;;;;;;;10.60;5.10;;;;;;;11.49;100.00;100376.03;6299337;28;20429;-77
2024/03/15 05:52:38;;;;;;;10.18;5.30;;;;;;;11.50;100.00;100380.34;6299546;28;20343;-77
2024/03/15 05:55:40;;;;;;;9.25;4.63;;;;;;;11.49;100.00;100369.88;6299412;28;20055;-77
2024/03/15 05:58:42;;;;;;;8.75;4.47;;;;;;;11.53;100.00;100376.66;6299468;28;20049;-77
2024/03/15 06:01:43;;;;;;;7.13;4.47;;;;;;;11.59;100.00;100374.50;6298984;28;20364;-76
2024/03/15 06:04:45;;;;;;;7.90;4.72;;;;;;;11.62;100.00;100379.53;6299596;28;20053;-77
2024/03/15 06:07:46;;;;;;;7.20;4.15;;;;;;;11.65;100.00;100381.97;6307839;28;20055;-77
2024/03/15 06:10:48;;;;;;;8.18;3.92;;;;;;;11.69;100.00;100377.38;6307193;28;20055;-76
2024/03/15 06:13:49;;;;;;;9.35;3.65;;;;;;;11.72;100.00;100385.09;6307689;28;20067;-77
2024/03/15 06:16:51;;;;;;;7.75;4.38;;;;;;;11.76;100.00;100385.72;6307422;28;20056;-77
2024/03/15 06:19:54;;;;;;;6.65;3.70;;;;;;;11.82;100.00;100382.72;6307319;28;20052;-77
2024/03/15 06:22:56;;;;;;;8.45;4.03;;;;;;;11.86;100.00;100394.75;6307795;28;20050;-76
2024/03/15 06:25:58;;;;;;;6.85;3.83;;;;;;;11.88;100.00;100403.41;6307043;28;20312;-77
2024/03/15 06:29:00;;;;;;;7.72;4.38;;;;;;;11.86;100.00;100400.03;6307070;28;20126;-78
2024/03/15 06:32:02;;;;;;;6.88;4.28;;;;;;;11.89;100.00;100408.56;6307332;28;20058;-77
2024/03/15 06:35:18;;;;;;;10.20;3.85;;;;;;;12.00;100.00;100409.66;6307105;28;20333;-76
2024/03/15 06:38:30;;;;;;;6.38;3.67;;;;;;;12.04;100.00;100405.91;6309571;28;20135;-77
2024/03/15 06:41:37;;;;;;;10.27;3.63;;;;;;;12.04;100.00;100405.91;6308486;28;20391;-77
2024/03/15 06:44:46;;;;;;;6.22;3.90;;;;;;;12.17;100.00;100406.75;6307732;28;20151;-76
2024/03/15 06:47:52;;;;;;;6.80;3.90;;;;;;;12.23;100.00;100411.66;6308459;28;20056;-77
2024/03/15 06:52:31;;;;;;;8.13;3.88;;;;;;;12.30;100.00;100410.28;6307423;28;20131;-77
2024/03/15 06:54:21;;;;;;;5.00;3.15;;;;;;;12.40;100.00;100410.53;6311049;28;20055;-77
2024/03/15 06:57:23;;;;;;;9.07;3.95;;;;;;;12.36;100.00;100406.41;6306834;28;20052;-78
2024/03/15 07:00:29;;;;;;;7.60;3.80;;;;;;;12.41;100.00;100407.81;6306611;28;20351;-77
2024/03/15 07:03:30;;;;;;;10.30;4.22;;;;;;;12.43;100.00;100411.16;6295761;28;20048;-77
2024/03/15 07:06:32;;;;;;;5.22;3.05;;;;;;;12.47;100.00;100414.44;6306865;28;20436;-77
2024/03/15 07:09:33;;;;;;;7.07;3.42;;;;;;;12.40;100.00;100414.03;6306567;28;20048;-79
2024/03/15 07:12:38;;;;;;;8.30;3.10;;;;;;;12.44;100.00;100409.38;6307117;28;20040;-77
2024/03/15 07:15:40;;;;;;;8.13;4.10;;;;;;;12.49;100.00;100412.56;6306974;28;20048;-77
2024/03/15 07:18:43;;;;;;;5.28;2.85;;;;;;;12.59;100.00;100410.16;6307240;28;20051;-77
2024/03/15 07:21:45;;;;;;;5.55;3.20;;;;;;;12.63;100.00;100416.91;6306654;28;20364;-77
2024/03/15 07:24:46;;;;;;;5.88;3.42;;;;;;;12.72;100.00;100412.78;6306832;28;20052;-77
2024/03/15 07:27:51;;;;;;;6.05;3.03;;;;;;;12.78;100.00;100415.03;6307035;28;20071;-76
2024/03/15 07:30:53;;;;;;;9.48;3.40;;;;;;;12.84;100.00;100414.59;6307059;28;20048;-76
2024/03/15 07:33:54;;;;;;;9.35;3.60;;;;;;;13.01;100.00;100416.94;6306813;28;20051;-77
2024/03/15 07:36:57;;;;;;;7.60;3.50;;;;;;;13.12;100.00;100422.31;6310141;28;20052;-77
2024/03/15 07:39:59;;;;;;;6.38;3.22;;;;;;;13.17;100.00;100421.97;6310714;28;20352;-77
2024/03/15 07:43:00;;;;;;;7.00;3.30;;;;;;;13.25;100.00;100417.06;6311432;28;20182;-77
2024/03/15 07:46:02;;;;;;;4.95;3.10;;;;;;;13.33;100.00;100422.66;6310461;28;20089;-76
2024/03/15 07:49:05;;;;;;;7.63;3.28;;;;;;;13.40;100.00;100418.66;6310393;28;20056;-75
2024/03/15 07:52:07;;;;;;;4.03;2.63;;;;;;;13.53;100.00;100430.97;6295666;28;20055;-76
2024/03/15 07:55:09;;;;;;;6.57;3.60;;;;;;;13.61;100.00;100428.63;6302352;28;20048;-78
2024/03/15 07:58:11;;;;;;;7.10;3.55;;;;;;;13.61;100.00;100434.75;6300633;28;20102;-77
2024/03/15 08:01:13;;;;;;;5.82;2.92;;;;;;;13.77;100.00;100429.22;6310321;28;20102;-77
2024/03/15 08:04:15;;;;;;;7.72;3.50;;;;;;;13.71;100.00;100429.66;6311192;28;20055;-77
2024/03/15 08:07:16;;;;;;;9.15;3.05;;;;;;;13.69;100.00;100424.50;6303184;28;20044;-78
2024/03/15 08:10:18;;;;;;;5.78;3.55;;;;;;;13.72;100.00;100418.16;6309628;28;20051;-77
2024/03/15 08:13:22;;;;;;;4.80;2.95;;;;;;;13.82;100.00;100424.47;6307259;28;20317;-77
2024/03/15 08:16:33;;;;;;;4.72;3.20;;;;;;;13.85;100.00;100426.00;6306267;28;20438;-77
2024/03/15 08:19:35;;;;;;;9.77;3.10;;;;;;;13.90;100.00;100422.09;6296087;28;20048;-78
2024/03/15 08:22:37;;;;;;;5.78;3.70;;;;;;;14.05;100.00;100428.06;6295924;28;20082;-78
2024/03/15 08:25:41;;;;;;;6.07;3.20;;;;;;;14.16;100.00;100427.28;6297493;28;20048;-78
2024/03/15 08:28:42;;;;;;;10.68;3.28;;;;;;;14.11;100.00;100435.53;6285561;28;20048;-77
2024/03/15 08:31:47;;;;;;;5.05;2.65;;;;;;;14.15;100.00;100423.78;6291007;28;20344;-77
2024/03/15 08:34:48;;;;;;;10.23;3.05;;;;;;;14.19;100.00;100432.34;6310358;28;20072;-77
2024/03/15 08:37:50;;;;;;;7.38;2.85;;;;;;;14.14;100.00;100435.31;6309946;28;20348;-77
2024/03/15 08:40:52;;;;;;;6.03;3.05;;;;;;;14.09;100.00;100434.81;6309210;28;20044;-79
2024/03/15 08:43:54;;;;;;;4.95;3.08;;;;;;;14.06;100.00;100436.84;6309465;28;20428;-80
2024/03/15 08:46:56;;;;;;;6.50;3.20;;;;;;;14.04;100.00;100450.19;6329314;22;20040;-77
2024/03/15 08:50:00;;;;;;;13.50;3.67;;;;;;;14.02;100.00;100443.28;6300716;28;20044;-75
2024/03/15 08:53:03;;;;;;;4.97;3.03;;;;;;;13.95;100.00;100442.91;6285557;28;20044;-76
2024/03/15 08:56:05;;;;;;;4.95;2.92;;;;;;;13.89;100.00;100446.81;6284163;28;20113;-76
2024/03/15 08:59:07;;;;;;;8.23;3.42;;;;;;;13.80;100.00;100449.28;6284025;28;20130;-77
2024/03/15 09:02:08;;;;;;;5.88;3.28;;;;;;;13.74;100.00;100462.94;6292246;28;20131;-77
2024/03/15 09:05:10;;;;;;;7.93;3.55;;;;;;;13.74;100.00;100450.56;6307198;28;20055;-76
2024/03/15 09:08:12;;;;;;;6.38;3.55;;;;;;;13.77;100.00;100454.81;6291821;28;20123;-76
2024/03/15 09:11:13;;;;;;;6.20;3.97;;;;;;;13.77;100.00;100470.66;6291796;28;20356;-76
2024/03/15 09:14:18;;;;;;;9.25;3.88;;;;;;;13.84;100.00;100466.59;6307504;28;20048;-76
2024/03/15 09:17:19;;;;;;;7.63;3.50;;;;;;;13.70;100.00;100472.88;6305371;28;20053;-76
2024/03/15 09:20:27;;;;;;;7.25;3.60;;;;;;;13.29;100.00;100483.66;6286472;28;20436;-77
2024/03/15 09:23:28;;;;;;;9.73;3.78;;;;;;;13.03;100.00;100485.41;6307887;28;20040;-77
2024/03/15 09:26:30;;;;;;;5.93;3.90;;;;;;;12.88;100.00;100484.66;6307343;28;20051;-77
2024/03/15 09:29:32;;;;;;;10.82;3.72;;;;;;;12.79;100.00;100482.63;6299901;28;20044;-77
2024/03/15 09:32:33;;;;;;;8.27;4.10;;;;;;;12.77;100.00;100481.91;6303083;28;20049;-76
2024/03/15 09:35:36;;;;;;;10.90;3.88;;;;;;;12.65;100.00;100487.03;6285329;28;20092;-76
2024/03/15 09:38:37;;;;;;;10.40;4.30;;;;;;;12.67;100.00;100485.16;6300752;28;20052;-77
2024/03/15 09:41:39;;;;;;;8.40;4.60;;;;;;;12.70;100.00;100484.94;6307634;28;20056;-78
2024/03/15 09:44:40;;;;;;;9.30;4.47;;;;;;;12.69;100.00;100490.31;6307649;28;20040;-76
2024/03/15 09:47:42;;;;;;;8.25;4.40;;;;;;;12.80;100.00;100482.53;6299369;28;20054;-77
2024/03/15 09:50:44;;;;;;;7.30;4.68;;;;;;;12.89;100.00;100488.97;6307646;28;20059;-77
2024/03/15 09:53:46;;;;;;;7.72;4.38;;;;;;;12.89;100.00;100487.19;6308058;28;20133;-78
2024/03/15 09:56:47;;;;;;;17.88;5.18;;;;;;;12.92;100.00;100492.25;6308281;28;20059;-75
2024/03/15 09:59:49;;;;;;;9.93;5.53;;;;;;;12.92;100.00;100492.25;6307116;28;20133;-76
2024/03/15 10:02:52;;;;;;;7.32;4.78;;;;;;;12.85;100.00;100501.56;6308045;28;20051;-76
2024/03/15 10:05:53;;;;;;;9.93;5.50;;;;;;;13.06;100.00;100498.41;6307708;28;20237;-76
2024/03/15 10:08:56;;;;;;;13.68;5.13;;;;;;;13.17;100.00;100496.75;6307008;28;20404;-75
2024/03/15 10:11:57;;;;;;;14.38;5.90;;;;;;;13.41;100.00;100486.31;6299010;28;20055;-76
2024/03/15 10:14:59;;;;;;;13.20;4.72;;;;;;;13.49;100.00;100484.91;6307038;28;20055;-78
2024/03/15 10:18:01;;;;;;;11.13;4.65;;;;;;;13.56;100.00;100481.75;6282740;28;20064;-77
2024/03/15 10:21:02;;;;;;;11.02;5.55;;;;;;;13.69;100.00;100487.03;6270021;28;20067;-77
2024/03/15 10:24:04;;;;;;;11.02;5.25;;;;;;;13.77;100.00;100479.41;6281780;28;20468;-76
2024/03/15 10:27:07;;;;;;;8.30;4.28;;;;;;;13.87;100.00;100487.53;6280846;28;20054;-76
2024/03/15 10:30:10;;;;;;;13.25;5.40;;;;;;;14.05;100.00;100470.34;6295228;28;20059;-76
2024/03/15 10:33:12;;;;;;;6.55;4.07;;;;;;;14.27;100.00;100482.00;6305048;28;20364;-76
2024/03/15 10:36:13;;;;;;;5.65;3.53;;;;;;;14.40;100.00;100475.72;6275867;28;20060;-76
2024/03/15 10:39:15;;;;;;;8.50;4.57;;;;;;;14.45;100.00;100473.56;6306587;28;20333;-77
2024/03/15 10:42:17;;;;;;;15.10;4.88;;;;;;;14.56;100.00;100486.03;6298862;28;20040;-77
2024/03/15 10:45:19;;;;;;;6.43;3.80;;;;;;;14.62;100.00;100480.25;6306991;28;20543;-77
2024/03/15 10:48:21;;;;;;;10.43;4.65;;;;;;;14.66;100.00;100481.72;6307333;28;20055;-78
2024/03/15 10:51:22;;;;;;;11.45;4.63;;;;;;;14.57;100.00;100484.22;6306690;28;20317;-77
2024/03/15 10:54:24;;;;;;;10.95;4.32;;;;;;;14.64;100.00;100483.66;6307129;28;20055;-76
2024/03/15 10:57:25;;;;;;;9.43;4.80;;;;;;;14.68;100.00;100487.75;6307171;28;20055;-76
2024/03/15 11:00:27;;;;;;;8.32;4.22;;;;;;;14.71;100.00;100489.31;6306518;28;20048;-77
2024/03/15 11:03:31;;;;;;;10.35;4.47;;;;;;;14.73;100.00;100490.06;6307191;28;20040;-76
2024/03/15 11:06:40;;;;;;;7.45;4.10;;;;;;;14.85;100.00;100489.16;6306949;28;20359;-75
2024/03/15 11:09:41;;;;;;;10.15;4.55;;;;;;;14.94;100.00;100492.88;6306877;28;20059;-76
2024/03/15 11:12:43;;;;;;;9.77;5.00;;;;;;;14.93;100.00;100504.44;6311696;28;20047;-76
2024/03/15 11:15:44;;;;;;;6.82;4.47;;;;;;;14.96;100.00;100491.81;6311141;28;20455;-77
2024/03/15 11:18:46;;;;;;;10.32;4.80;;;;;;;14.98;100.00;100496.97;6311774;28;20054;-77
2024/03/15 11:21:48;;;;;;;7.38;4.55;;;;;;;15.07;100.00;100491.00;6310176;28;20348;-76
2024/03/15 11:24:50;;;;;;;9.45;4.07;;;;;;;15.24;100.00;100505.59;6306753;28;20380;-76
2024/03/15 11:27:56;;;;;;;12.13;4.13;;;;;;;15.39;100.00;100487.66;6294698;28;20048;-77
2024/03/15 11:30:58;;;;;;;6.53;4.07;;;;;;;15.50;100.00;100481.56;6311336;28;20052;-76
2024/03/15 11:34:00;;;;;;;6.18;3.53;;;;;;;15.36;100.00;100498.53;6311264;28;20044;-75
2024/03/15 11:37:02;;;;;;;5.35;3.47;;;;;;;15.16;100.00;100482.34;6311299;28;20079;-76
2024/03/15 11:40:04;;;;;;;5.97;3.33;;;;;;;15.00;100.00;100481.84;6310542;28;20364;-76
2024/03/15 11:43:06;;;;;;;4.35;2.88;;;;;;;14.99;100.00;100482.81;6311437;28;20044;-79
2024/03/15 11:46:08;;;;;;;5.95;3.80;;;;;;;14.94;100.00;100487.59;6310072;28;20043;-79
2024/03/15 11:49:10;;;;;;;6.45;4.03;;;;;;;14.98;100.00;100484.59;6310864;28;20117;-74
2024/03/15 11:52:12;;;;;;;6.50;3.28;;;;;;;15.15;100.00;100485.13;6306904;28;20057;-78
2024/03/15 11:55:17;;;;;;;9.52;4.50;;;;;;;15.26;100.00;100481.63;6274765;28;20071;-77
2024/03/15 11:58:19;;;;;;;5.53;4.10;;;;;;;15.56;100.00;100486.38;6292833;28;20087;-77
2024/03/15 12:01:20;;;;;;;7.30;3.83;;;;;;;15.61;100.00;100470.94;6293392;28;20356;-77
2024/03/15 12:04:25;;;;;;;6.53;3.55;;;;;;;15.75;100.00;100469.88;6293420;28;20040;-78
2024/03/15 12:07:26;;;;;;;6.63;3.72;;;;;;;15.98;100.00;100472.38;6291869;28;20043;-77
2024/03/15 12:10:28;;;;;;;6.35;3.65;;;;;;;16.00;100.00;100469.63;6307209;28;20041;-80
2024/03/15 12:13:30;;;;;;;4.25;3.17;;;;;;;16.03;100.00;100465.88;6305514;28;20048;-78
2024/03/15 12:16:31;;;;;;;4.78;3.13;;;;;;;16.05;100.00;100467.44;6293461;28;20094;-77
2024/03/15 12:19:33;;;;;;;9.63;3.00;;;;;;;16.02;100.00;100470.34;6293238;28;20044;-78
2024/03/15 12:22:34;;;;;;;4.55;3.05;;;;;;;15.92;100.00;100477.34;6292516;28;20053;-79
2024/03/15 12:25:36;;;;;;;5.35;2.95;;;;;;;15.75;100.00;100464.59;6305079;28;20044;-77
2024/03/15 12:28:38;;;;;;;5.60;3.03;;;;;;;15.68;100.00;100464.25;6288368;28;20052;-78
2024/03/15 12:31:41;;;;;;;7.35;3.22;;;;;;;15.88;100.00;100468.78;6287615;28;20105;-78
2024/03/15 12:34:42;;;;;;;4.50;3.38;;;;;;;15.82;100.00;100453.38;6309675;28;20177;-76
2024/03/15 12:37:44;;;;;;;6.00;3.53;;;;;;;15.87;100.00;100464.47;6309911;28;20055;-77
2024/03/15 12:40:46;;;;;;;8.30;3.92;;;;;;;15.64;100.00;100474.25;6309032;28;20052;-77
2024/03/15 12:43:47;;;;;;;7.10;3.67;;;;;;;15.69;100.00;100461.47;6306589;28;20047;-78
2024/03/15 12:46:49;;;;;;;5.43;3.58;;;;;;;15.69;100.00;100463.28;6299860;28;20451;-78
2024/03/15 12:49:50;;;;;;;7.93;3.65;;;;;;;15.76;100.00;100468.91;6307187;28;20051;-78
2024/03/15 12:52:52;;;;;;;5.20;3.97;;;;;;;15.61;100.00;100461.19;6304686;28;20040;-78
2024/03/15 12:55:53;;;;;;;6.90;4.10;;;;;;;15.62;100.00;100454.09;6300781;28;20459;-78
2024/03/15 12:58:55;;;;;;;7.38;4.25;;;;;;;15.60;100.00;100451.56;6296130;28;20055;-78
2024/03/15 13:01:56;;;;;;;8.73;4.40;;;;;;;15.57;100.00;100448.31;6282713;28;20044;-78
2024/03/15 13:04:58;;;;;;;7.20;4.18;;;;;;;15.65;100.00;100449.44;6283657;28;20053;-78
2024/03/15 13:08:00;;;;;;;5.55;4.07;;;;;;;15.74;100.00;100445.22;6283105;28;20146;-77
2024/03/15 13:11:01;;;;;;;10.25;5.15;;;;;;;15.86;100.00;100454.00;6283554;28;20330;-78
2024/03/15 13:14:03;;;;;;;5.82;3.92;;;;;;;16.01;100.00;100443.97;6284001;28;20044;-78
2024/03/15 13:17:04;;;;;;;5.57;3.65;;;;;;;16.15;100.00;100449.81;6283844;28;20082;-78
2024/03/15 13:20:13;;;;;;;7.15;4.07;;;;;;;16.10;100.00;100443.22;6283316;28;20352;-77
2024/03/15 13:23:15;;;;;;;9.13;4.05;;;;;;;16.21;100.00;100435.22;6285103;28;20049;-77
2024/03/15 13:26:24;;;;;;;12.10;4.95;;;;;;;16.05;100.00;100429.50;6283323;28;20356;-78
2024/03/15 13:29:25;;;;;;;8.40;4.45;;;;;;;15.94;100.00;100425.03;6284539;28;20133;-78
2024/03/15 13:32:27;;;;;;;8.25;5.65;;;;;;;15.86;100.00;100423.03;6283154;28;20041;-78
2024/03/15 13:35:28;;;;;;;9.43;5.40;;;;;;;15.88;100.00;100421.09;6283172;28;20048;-77
2024/03/15 13:38:30;;;;;;;7.47;4.85;;;;;;;15.87;100.00;100424.72;6283308;28;20356;-78
2024/03/15 13:41:31;;;;;;;8.32;5.32;;;;;;;15.86;100.00;100411.59;6282858;28;20052;-78
2024/03/15 13:44:34;;;;;;;9.07;5.47;;;;;;;15.82;100.00;100418.94;6283326;28;20041;-78
2024/03/15 13:47:36;;;;;;;6.07;4.32;;;;;;;15.71;100.00;100421.59;6286802;28;20054;-78
2024/03/15 13:50:39;;;;;;;9.80;4.32;;;;;;;15.61;100.00;100431.22;6287417;28;20352;-78
2024/03/15 13:53:44;;;;;;;8.50;4.93;;;;;;;15.56;100.00;100439.53;6307777;28;20122;-78